createdAt,value
2018-04-19T00:01:11.089Z,71.85
2018-04-19T00:03:39.546Z,71.81
2018-04-19T00:06:08.035Z,72.26
2018-04-19T00:08:36.483Z,71.85
2018-04-19T00:11:04.934Z,71.84
2018-04-19T00:13:33.411Z,72.31
2018-04-19T00:16:01.871Z,72.32
2018-04-19T00:18:30.731Z,72.46
2018-04-19T00:20:59.216Z,72.32
2018-04-19T00:23:27.649Z,72.45
2018-04-19T00:25:56.088Z,72.05
2018-04-19T00:28:24.588Z,72.90
2018-04-19T00:30:53.020Z,73.00
2018-04-19T00:33:21.445Z,73.24
2018-04-19T00:35:49.932Z,73.11
2018-04-19T00:38:18.357Z,73.73
2018-04-19T00:40:46.800Z,73.23
2018-04-19T00:43:15.296Z,73.84
2018-04-19T00:45:43.733Z,74.00
2018-04-19T00:48:12.190Z,74.11
2018-04-19T00:50:40.661Z,73.70
2018-04-19T00:53:09.952Z,73.89
2018-04-19T00:55:38.406Z,74.60
2018-04-19T00:58:06.892Z,74.76
2018-04-19T01:00:35.359Z,75.14
2018-04-19T01:03:03.788Z,75.11
2018-04-19T01:05:32.281Z,74.75
2018-04-19T01:08:00.713Z,74.13
2018-04-19T01:10:29.157Z,73.62
2018-04-19T01:12:57.674Z,73.45
2018-04-19T01:15:26.132Z,72.88
2018-04-19T01:17:54.566Z,72.31
2018-04-19T01:20:23.068Z,71.63
2018-04-19T01:22:51.507Z,71.49
2018-04-19T01:25:19.953Z,71.46
2018-04-19T01:27:48.425Z,71.81
2018-04-19T01:30:16.873Z,71.72
2018-04-19T01:32:45.313Z,71.84
2018-04-19T01:35:13.781Z,72.38
2018-04-19T01:37:42.241Z,72.50
2018-04-19T01:40:10.675Z,72.55
2018-04-19T01:42:39.165Z,73.14
2018-04-19T01:45:07.593Z,73.65
2018-04-19T01:47:36.017Z,73.87
2018-04-19T01:50:04.537Z,73.92
2018-04-19T01:52:32.955Z,74.42
2018-04-19T01:55:01.397Z,74.55
2018-04-19T01:57:29.912Z,74.26
2018-04-19T01:59:58.362Z,74.71
2018-04-19T02:02:26.792Z,74.80
2018-04-19T02:04:55.292Z,75.23
2018-04-19T02:07:23.720Z,75.40
2018-04-19T02:09:52.172Z,75.49
2018-04-19T02:12:20.630Z,75.52
2018-04-19T02:14:49.061Z,74.97
2018-04-19T02:17:17.520Z,74.79
2018-04-19T02:19:45.979Z,75.05
2018-04-19T02:22:14.421Z,75.68
2018-04-19T02:24:42.842Z,75.34
2018-04-19T02:27:11.304Z,75.34
2018-04-19T02:29:39.752Z,75.85
2018-04-19T02:32:08.192Z,76.35
2018-04-19T02:34:36.668Z,76.54
2018-04-19T02:37:05.112Z,76.67
2018-04-19T02:39:33.543Z,76.22
2018-04-19T02:42:02.030Z,76.24
2018-04-19T02:44:30.467Z,76.77
2018-04-19T02:46:58.908Z,76.98
2018-04-19T02:49:27.384Z,76.91
2018-04-19T02:51:55.809Z,76.99
2018-04-19T02:54:24.228Z,77.40
2018-04-19T02:56:52.738Z,77.14
2018-04-19T02:59:21.170Z,77.19
2018-04-19T03:01:49.597Z,77.55
2018-04-19T03:04:18.068Z,77.71
2018-04-19T03:06:46.518Z,77.82
2018-04-19T03:09:14.949Z,77.65
2018-04-19T03:11:43.421Z,77.64
2018-04-19T03:14:11.860Z,77.52
2018-04-19T03:16:40.303Z,77.45
2018-04-19T03:19:08.777Z,77.79
2018-04-19T03:21:37.207Z,77.65
2018-04-19T03:24:05.631Z,77.49
2018-04-19T03:26:34.089Z,77.39
2018-04-19T03:29:02.576Z,77.47
2018-04-19T03:31:31.011Z,77.74
2018-04-19T03:33:59.484Z,77.58
2018-04-19T03:36:28.162Z,77.23
2018-04-19T03:38:56.592Z,77.37
2018-04-19T03:41:25.064Z,77.28
2018-04-19T03:43:53.492Z,77.59
2018-04-19T03:46:21.941Z,77.46
2018-04-19T03:48:50.440Z,77.60
2018-04-19T03:51:18.871Z,77.89
2018-04-19T03:53:47.332Z,77.43
2018-04-19T03:56:15.846Z,77.74
2018-04-19T03:58:44.276Z,77.51
2018-04-19T04:01:12.793Z,77.60
2018-04-19T04:03:41.241Z,77.89
2018-04-19T04:06:09.685Z,77.43
2018-04-19T04:08:38.116Z,77.37
2018-04-19T04:11:06.631Z,77.59
2018-04-19T04:13:35.077Z,77.58
2018-04-19T04:16:03.510Z,78.03
2018-04-19T04:18:43.753Z,78.02
2018-04-19T04:21:18.911Z,78.28
2018-04-19T04:23:55.241Z,77.90
2018-04-19T04:26:23.688Z,78.20
2018-04-19T04:28:52.129Z,78.04
2018-04-19T04:31:20.704Z,78.04
2018-04-19T04:33:49.115Z,78.32
2018-04-19T04:36:17.548Z,78.75
2018-04-19T04:38:46.021Z,78.67
2018-04-19T04:41:14.456Z,78.65
2018-04-19T04:43:42.897Z,78.78
2018-04-19T04:46:11.403Z,78.79
2018-04-19T04:48:39.840Z,79.62
2018-04-19T04:51:08.289Z,79.49
2018-04-19T04:53:36.821Z,79.44
2018-04-19T04:56:05.253Z,79.31
2018-04-19T04:58:33.689Z,79.12
2018-04-19T05:01:02.178Z,79.00
2018-04-19T05:03:30.618Z,79.06
2018-04-19T05:05:59.092Z,78.94
2018-04-19T05:08:27.614Z,78.59
2018-04-19T05:10:56.078Z,78.80
2018-04-19T05:13:24.517Z,78.79
2018-04-19T05:15:53.013Z,78.49
2018-04-19T05:18:21.455Z,78.17
2018-04-19T05:20:49.898Z,78.45
2018-04-19T05:23:18.396Z,78.05
2018-04-19T05:25:46.824Z,77.85
2018-04-19T05:28:15.271Z,77.74
2018-04-19T05:30:43.765Z,77.39
2018-04-19T05:33:12.202Z,77.49
2018-04-19T05:35:40.647Z,77.12
2018-04-19T05:38:09.140Z,77.08
2018-04-19T05:40:37.603Z,76.96
2018-04-19T05:43:06.064Z,77.32
2018-04-19T05:45:34.555Z,77.42
2018-04-19T05:48:02.986Z,77.06
2018-04-19T05:50:31.421Z,76.79
2018-04-19T05:52:59.910Z,75.93
2018-04-19T05:55:28.343Z,75.95
2018-04-19T05:57:56.797Z,75.50
2018-04-19T06:00:25.283Z,74.59
2018-04-19T06:02:53.718Z,74.84
2018-04-19T06:05:22.149Z,75.20
2018-04-19T06:07:50.644Z,75.19
2018-04-19T06:10:19.083Z,75.06
2018-04-19T06:12:47.536Z,75.11
2018-04-19T06:15:16.059Z,75.00
2018-04-19T06:17:44.516Z,74.61
2018-04-19T06:20:12.998Z,73.85
2018-04-19T06:22:41.496Z,73.52
2018-04-19T06:25:09.940Z,72.88
2018-04-19T06:27:38.369Z,72.33
2018-04-19T06:30:06.908Z,73.00
2018-04-19T06:32:35.338Z,73.36
2018-04-19T06:35:03.816Z,72.57
2018-04-19T06:37:32.388Z,71.96
2018-04-19T06:40:00.824Z,71.44
2018-04-19T06:42:29.268Z,70.34
2018-04-19T06:44:57.740Z,70.83
2018-04-19T06:47:26.180Z,70.16
2018-04-19T06:49:54.620Z,69.97
2018-04-19T06:52:23.120Z,71.37
2018-04-19T06:54:51.572Z,71.66
2018-04-19T06:57:20.008Z,72.05
2018-04-19T06:59:48.493Z,71.67
2018-04-19T07:02:16.949Z,69.54
2018-04-19T07:04:45.382Z,68.80
2018-04-19T07:07:13.891Z,68.48
2018-04-19T07:09:42.321Z,66.69
2018-04-19T07:12:10.775Z,66.92
2018-04-19T07:14:39.259Z,67.39
2018-04-19T07:17:07.699Z,64.77
2018-04-19T07:19:36.142Z,63.40
2018-04-19T07:22:04.731Z,62.63
2018-04-19T07:24:33.181Z,61.43
2018-04-19T07:27:01.632Z,61.62
2018-04-19T07:29:30.105Z,61.99
2018-04-19T07:31:58.553Z,62.55
2018-04-19T07:34:27.001Z,62.00
2018-04-19T07:36:55.472Z,59.81
2018-04-19T07:39:23.895Z,60.25
2018-04-19T07:41:52.331Z,60.76
2018-04-19T07:44:20.831Z,59.69
2018-04-19T07:46:49.288Z,60.33
2018-04-19T07:49:17.724Z,56.50
2018-04-19T07:51:46.232Z,56.83
2018-04-19T07:54:14.669Z,56.14
2018-04-19T07:56:43.121Z,57.08
2018-04-19T07:59:11.608Z,55.95
2018-04-19T08:01:40.053Z,56.24
2018-04-19T08:04:08.501Z,56.73
2018-04-19T08:06:36.982Z,56.63
2018-04-19T08:09:05.468Z,56.98
2018-04-19T08:11:33.898Z,56.16
2018-04-19T08:14:02.407Z,54.38
2018-04-19T08:16:30.846Z,54.35
2018-04-19T08:18:59.278Z,54.63
2018-04-19T08:21:27.759Z,54.21
2018-04-19T08:23:56.205Z,52.82
2018-04-19T08:26:24.644Z,53.18
2018-04-19T08:28:53.121Z,54.10
2018-04-19T08:31:21.560Z,52.46
2018-04-19T08:33:49.996Z,52.56
2018-04-19T08:36:18.465Z,52.07
2018-04-19T08:38:46.913Z,51.93
2018-04-19T08:41:15.380Z,52.54
2018-04-19T08:43:43.872Z,53.39
2018-04-19T08:46:12.341Z,52.21
2018-04-19T08:48:40.781Z,50.85
2018-04-19T08:51:09.266Z,49.52
2018-04-19T08:53:37.704Z,49.44
2018-04-19T08:56:06.189Z,48.57
2018-04-19T08:58:34.649Z,49.19
2018-04-19T09:01:03.092Z,46.76
2018-04-19T09:03:31.522Z,46.16
2018-04-19T09:06:00.015Z,48.91
2018-04-19T09:08:28.470Z,45.32
2018-04-19T09:10:56.951Z,46.93
2018-04-19T09:13:25.444Z,46.22
2018-04-19T09:15:53.882Z,47.49
2018-04-19T09:18:22.320Z,46.50
2018-04-19T09:20:50.799Z,45.40
2018-04-19T09:23:19.229Z,45.57
2018-04-19T09:25:47.669Z,46.08
2018-04-19T09:28:16.131Z,46.09
2018-04-19T09:30:44.575Z,45.55
2018-04-19T09:33:13.004Z,42.44
2018-04-19T09:35:41.487Z,44.15
2018-04-19T09:38:09.943Z,45.04
2018-04-19T09:40:38.384Z,43.98
2018-04-19T09:43:06.855Z,41.96
2018-04-19T09:45:35.294Z,40.51
2018-04-19T09:48:03.745Z,40.80
2018-04-19T09:50:32.216Z,38.52
2018-04-19T09:53:00.660Z,39.81
2018-04-19T09:55:29.108Z,39.55
2018-04-19T09:58:08.265Z,39.23
2018-04-19T10:00:42.265Z,39.00
2018-04-19T10:03:16.196Z,40.18
2018-04-19T10:05:47.492Z,39.36
2018-04-19T10:08:15.972Z,38.10
2018-04-19T10:10:44.472Z,38.12
2018-04-19T10:13:12.906Z,38.67
2018-04-19T10:15:41.354Z,38.31
2018-04-19T10:18:09.828Z,39.04
2018-04-19T10:20:38.260Z,38.89
2018-04-19T10:23:06.709Z,39.46
2018-04-19T10:25:35.195Z,40.82
2018-04-19T10:28:03.632Z,41.29
2018-04-19T10:30:32.080Z,41.04
2018-04-19T10:33:00.572Z,41.23
2018-04-19T10:35:29.018Z,40.55
2018-04-19T10:37:57.448Z,39.68
2018-04-19T10:40:25.913Z,41.51
2018-04-19T10:42:54.376Z,41.26
2018-04-19T10:45:22.820Z,40.06
2018-04-19T10:47:51.538Z,37.06
2018-04-19T10:50:19.979Z,39.36
2018-04-19T10:52:48.446Z,39.93
2018-04-19T10:55:16.938Z,39.57
2018-04-19T10:57:45.366Z,39.89
2018-04-19T11:00:13.799Z,40.27
2018-04-19T11:02:42.282Z,39.77
2018-04-19T11:05:10.714Z,39.71
2018-04-19T11:07:39.157Z,39.32
2018-04-19T11:10:07.637Z,39.44
2018-04-19T11:12:36.087Z,39.33
2018-04-19T11:15:04.536Z,38.00
2018-04-19T11:17:33.047Z,39.83
2018-04-19T11:20:01.522Z,38.96
2018-04-19T11:22:29.999Z,39.19
2018-04-19T11:24:58.504Z,38.02
2018-04-19T11:27:26.932Z,36.48
2018-04-19T11:29:55.379Z,36.85
2018-04-19T11:32:23.863Z,36.73
2018-04-19T11:34:52.297Z,36.62
2018-04-19T11:37:20.718Z,36.91
2018-04-19T11:39:49.218Z,35.75
2018-04-19T11:42:17.648Z,34.98
2018-04-19T11:44:46.088Z,34.88
2018-04-19T11:47:14.560Z,35.42
2018-04-19T11:49:43.000Z,35.24
2018-04-19T11:52:11.432Z,35.54
2018-04-19T11:54:39.986Z,33.11
2018-04-19T11:57:08.453Z,32.18
2018-04-19T11:59:36.916Z,32.68
2018-04-19T12:02:05.424Z,30.28
2018-04-19T12:04:33.852Z,30.20
2018-04-19T12:07:02.313Z,30.03
2018-04-19T12:09:30.825Z,32.00
2018-04-19T12:11:59.277Z,32.47
2018-04-19T12:14:27.741Z,33.11
2018-04-19T12:16:56.219Z,33.04
2018-04-19T12:19:24.660Z,34.18
2018-04-19T12:21:53.105Z,33.50
2018-04-19T12:24:21.603Z,33.67
2018-04-19T12:26:50.051Z,33.62
2018-04-19T12:29:18.525Z,33.65
2018-04-19T12:31:47.020Z,34.06
2018-04-19T12:34:15.460Z,35.44
2018-04-19T12:36:43.899Z,34.15
2018-04-19T12:39:12.376Z,33.31
2018-04-19T12:41:40.848Z,33.61
2018-04-19T12:44:09.297Z,33.88
2018-04-19T12:46:37.768Z,33.85
2018-04-19T12:49:06.208Z,34.12
2018-04-19T12:51:34.620Z,33.71
2018-04-19T12:54:03.142Z,33.23
2018-04-19T12:56:31.631Z,32.92
2018-04-19T12:59:00.026Z,32.91
2018-04-19T13:01:28.543Z,32.32
2018-04-19T13:03:56.960Z,32.01
2018-04-19T13:06:25.393Z,31.95
2018-04-19T13:08:53.876Z,34.53
2018-04-19T13:11:22.322Z,34.28
2018-04-19T13:13:50.748Z,34.62
2018-04-19T13:16:19.232Z,35.59
2018-04-19T13:18:47.663Z,35.56
2018-04-19T13:21:16.089Z,35.21
2018-04-19T13:23:44.571Z,37.40
2018-04-19T13:26:13.018Z,37.55
2018-04-19T13:28:41.451Z,37.75
2018-04-19T13:31:09.940Z,37.98
2018-04-19T13:33:38.372Z,38.41
2018-04-19T13:36:06.811Z,37.90
2018-04-19T13:38:35.268Z,37.18
2018-04-19T13:41:03.730Z,37.76
2018-04-19T13:43:32.185Z,38.10
2018-04-19T13:46:00.680Z,38.79
2018-04-19T13:48:29.144Z,38.56
2018-04-19T13:50:57.572Z,39.51
2018-04-19T13:53:26.072Z,38.55
2018-04-19T13:55:54.552Z,39.68
2018-04-19T13:58:22.973Z,39.43
2018-04-19T14:00:51.452Z,39.49
2018-04-19T14:03:19.872Z,40.47
2018-04-19T14:05:48.369Z,39.91
2018-04-19T14:08:16.827Z,38.94
2018-04-19T14:10:45.249Z,40.09
2018-04-19T14:13:13.664Z,40.97
2018-04-19T14:15:42.140Z,38.60
2018-04-19T14:18:10.579Z,38.15
2018-04-19T14:20:39.012Z,39.29
2018-04-19T14:23:07.482Z,39.01
2018-04-19T14:25:35.916Z,39.90
2018-04-19T14:28:04.384Z,38.91
2018-04-19T14:30:32.848Z,39.65
2018-04-19T14:33:01.281Z,39.03
2018-04-19T14:35:29.708Z,40.12
2018-04-19T14:37:58.172Z,41.12
2018-04-19T14:40:26.596Z,41.33
2018-04-19T14:42:55.031Z,41.74
2018-04-19T14:45:23.520Z,41.42
2018-04-19T14:47:51.941Z,41.34
2018-04-19T14:50:20.379Z,42.35
2018-04-19T14:52:48.844Z,42.27
2018-04-19T14:55:17.299Z,41.62
2018-04-19T14:57:45.748Z,41.73
2018-04-19T15:00:14.235Z,42.30
2018-04-19T15:02:42.674Z,42.48
2018-04-19T15:05:11.108Z,43.76
2018-04-19T15:07:39.588Z,43.07
2018-04-19T15:10:08.037Z,44.08
2018-04-19T15:12:36.460Z,44.15
2018-04-19T15:15:04.936Z,44.03
2018-04-19T15:17:33.371Z,44.77
2018-04-19T15:20:01.875Z,45.00
2018-04-19T15:22:30.326Z,44.77
2018-04-19T15:24:58.804Z,45.17
2018-04-19T15:27:27.246Z,46.47
2018-04-19T15:29:55.716Z,45.90
2018-04-19T15:32:24.176Z,44.90
2018-04-19T15:34:52.612Z,46.00
2018-04-19T15:37:21.120Z,46.54
2018-04-19T15:39:49.584Z,44.96
2018-04-19T15:42:18.017Z,46.08
2018-04-19T15:44:46.510Z,45.92
2018-04-19T15:47:14.949Z,46.91
2018-04-19T15:49:43.400Z,46.53
2018-04-19T15:52:11.878Z,46.08
2018-04-19T15:54:40.312Z,46.85
2018-04-19T15:57:08.748Z,46.85
2018-04-19T15:59:37.233Z,47.10
2018-04-19T16:02:05.756Z,47.05
2018-04-19T16:04:34.384Z,47.65
2018-04-19T16:07:02.868Z,47.29
2018-04-19T16:09:31.343Z,46.58
2018-04-19T16:11:59.832Z,46.58
2018-04-19T16:14:28.309Z,47.59
2018-04-19T16:16:56.744Z,46.27
2018-04-19T16:19:25.184Z,46.88
2018-04-19T16:21:53.692Z,46.47
2018-04-19T16:24:22.141Z,46.72
2018-04-19T16:26:50.576Z,45.04
2018-04-19T16:29:19.040Z,45.36
2018-04-19T16:31:47.504Z,45.43
2018-04-19T16:34:15.942Z,46.11
2018-04-19T16:36:44.421Z,46.99
2018-04-19T16:39:12.864Z,46.83
2018-04-19T16:41:41.319Z,45.66
2018-04-19T16:44:09.796Z,45.75
2018-04-19T16:46:38.231Z,45.96
2018-04-19T16:49:06.664Z,46.01
2018-04-19T16:51:35.136Z,46.75
2018-04-19T16:54:03.580Z,47.26
2018-04-19T16:56:32.016Z,47.30
2018-04-19T16:59:00.489Z,46.99
2018-04-19T17:01:28.932Z,47.59
2018-04-19T17:03:57.431Z,47.53
2018-04-19T17:06:25.949Z,47.59
2018-04-19T17:08:54.380Z,47.92
2018-04-19T17:11:22.805Z,47.98
2018-04-19T17:13:51.296Z,47.90
2018-04-19T17:16:19.729Z,47.84
2018-04-19T17:18:48.163Z,47.89
2018-04-19T17:21:16.647Z,48.01
2018-04-19T17:23:45.101Z,48.47
2018-04-19T17:26:13.545Z,48.65
2018-04-19T17:28:42.040Z,48.73
2018-04-19T17:31:10.472Z,49.00
2018-04-19T17:33:38.911Z,48.55
2018-04-19T17:36:07.402Z,48.35
2018-04-19T17:38:35.824Z,48.85
2018-04-19T17:41:04.508Z,48.58
2018-04-19T17:43:33.037Z,49.24
2018-04-19T17:46:01.483Z,48.87
2018-04-19T17:48:29.936Z,48.79
2018-04-19T17:50:58.406Z,48.54
2018-04-19T17:53:26.837Z,48.81
2018-04-19T17:55:55.268Z,48.60
2018-04-19T17:58:23.900Z,48.66
2018-04-19T18:00:52.336Z,48.28
2018-04-19T18:03:20.787Z,48.42
2018-04-19T18:05:49.297Z,48.03
2018-04-19T18:08:17.746Z,48.62
2018-04-19T18:10:46.192Z,48.47
2018-04-19T18:13:14.704Z,48.67
2018-04-19T18:15:43.175Z,49.24
2018-04-19T18:18:11.612Z,49.71
2018-04-19T18:20:40.085Z,49.91
2018-04-19T18:23:08.520Z,50.21
2018-04-19T18:25:36.948Z,50.31
2018-04-19T18:28:05.423Z,49.94
2018-04-19T18:30:33.885Z,50.20
2018-04-19T18:33:02.334Z,50.21
2018-04-19T18:35:30.804Z,50.51
2018-04-19T18:37:59.263Z,50.83
2018-04-19T18:40:27.697Z,50.92
2018-04-19T18:42:56.166Z,51.11
2018-04-19T18:45:24.611Z,51.53
2018-04-19T18:47:53.043Z,51.43
2018-04-19T18:50:21.528Z,51.71
2018-04-19T18:52:49.980Z,52.08
2018-04-19T18:55:18.410Z,52.21
2018-04-19T18:57:46.896Z,52.57
2018-04-19T19:00:16.236Z,52.82
2018-04-19T19:02:44.684Z,53.26
2018-04-19T19:05:13.171Z,53.35
2018-04-19T19:07:41.628Z,53.78
2018-04-19T19:10:10.050Z,53.92
2018-04-19T19:12:38.524Z,53.98
2018-04-19T19:15:15.973Z,54.15
2018-04-19T19:17:56.420Z,54.42
2018-04-19T19:20:24.857Z,54.69
2018-04-19T19:22:53.307Z,55.34
2018-04-19T19:25:21.787Z,55.70
2018-04-19T19:27:50.220Z,55.99
2018-04-19T19:30:18.644Z,56.24
2018-04-19T19:32:47.128Z,56.40
2018-04-19T19:35:15.612Z,56.57
2018-04-19T19:37:44.048Z,56.59
2018-04-19T19:40:12.520Z,56.61
2018-04-19T19:42:40.980Z,56.42
2018-04-19T19:45:09.465Z,56.29
2018-04-19T19:47:37.991Z,56.20
2018-04-19T19:50:06.440Z,56.09
2018-04-19T19:52:34.886Z,56.02
2018-04-19T19:55:03.364Z,55.99
2018-04-19T19:57:31.789Z,56.16
2018-04-19T20:00:00.216Z,56.13
2018-04-19T20:02:28.716Z,56.00
2018-04-19T20:04:57.147Z,56.00
2018-04-19T20:07:25.593Z,56.34
2018-04-19T20:09:54.056Z,56.22
2018-04-19T20:12:22.501Z,56.06
2018-04-19T20:14:50.935Z,55.92
2018-04-19T20:17:19.396Z,55.83
2018-04-19T20:19:47.861Z,55.97
2018-04-19T20:22:16.334Z,55.66
2018-04-19T20:24:44.821Z,55.58
2018-04-19T20:27:13.249Z,55.52
2018-04-19T20:29:41.689Z,55.82
2018-04-19T20:32:10.192Z,55.79
2018-04-19T20:34:38.644Z,56.05
2018-04-19T20:37:07.078Z,55.86
2018-04-19T20:39:35.582Z,56.10
2018-04-19T20:42:04.016Z,56.42
2018-04-19T20:44:32.450Z,56.63
2018-04-19T20:47:00.948Z,57.25
2018-04-19T20:49:29.388Z,57.57
2018-04-19T20:51:57.839Z,58.00
2018-04-19T20:54:26.333Z,58.11
2018-04-19T20:56:54.808Z,58.06
2018-04-19T20:59:23.248Z,58.12
2018-04-19T21:01:51.723Z,58.41
2018-04-19T21:04:20.176Z,58.56
2018-04-19T21:06:48.637Z,58.69
2018-04-19T21:09:17.108Z,58.85
2018-04-19T21:11:45.560Z,59.18
2018-04-19T21:14:13.989Z,59.05
2018-04-19T21:16:42.496Z,59.72
2018-04-19T21:19:10.934Z,60.05
2018-04-19T21:21:39.744Z,60.33
2018-04-19T21:24:08.380Z,60.78
2018-04-19T21:26:36.803Z,60.94
2018-04-19T21:29:05.224Z,61.37
2018-04-19T21:31:33.724Z,61.62
2018-04-19T21:34:02.191Z,61.40
2018-04-19T21:36:30.684Z,60.98
2018-04-19T21:38:59.204Z,61.22
2018-04-19T21:41:27.649Z,61.30
2018-04-19T21:43:56.085Z,61.39
2018-04-19T21:46:24.583Z,61.49
2018-04-19T21:48:53.020Z,62.06
2018-04-19T21:51:21.464Z,62.08
2018-04-19T21:53:49.949Z,62.39
2018-04-19T21:56:18.376Z,62.56
2018-04-19T21:58:46.811Z,62.92
2018-04-19T22:01:15.287Z,62.94
2018-04-19T22:03:43.736Z,63.14
2018-04-19T22:06:12.198Z,63.07
2018-04-19T22:08:40.678Z,63.23
2018-04-19T22:11:09.187Z,63.42
2018-04-19T22:13:37.637Z,63.60
2018-04-19T22:16:06.129Z,63.91
2018-04-19T22:18:34.556Z,63.91
2018-04-19T22:21:02.990Z,63.91
2018-04-19T22:23:31.476Z,64.02
2018-04-19T22:25:59.913Z,64.42
2018-04-19T22:28:28.349Z,64.73
2018-04-19T22:30:56.833Z,64.65
2018-04-19T22:33:25.299Z,65.02
2018-04-19T22:35:53.724Z,65.14
2018-04-19T22:38:22.193Z,65.19
2018-04-19T22:40:50.633Z,65.24
2018-04-19T22:43:19.083Z,65.62
2018-04-19T22:45:47.556Z,65.75
2018-04-19T22:48:16.329Z,66.04
2018-04-19T22:50:44.800Z,66.29
2018-04-19T22:53:13.284Z,66.63
2018-04-19T22:55:41.712Z,66.51
2018-04-19T22:58:10.155Z,66.30
2018-04-19T23:00:38.638Z,66.61
2018-04-19T23:03:07.061Z,66.71
2018-04-19T23:05:35.499Z,66.82
2018-04-19T23:08:04.000Z,66.77
2018-04-19T23:10:32.458Z,66.93
2018-04-19T23:13:00.945Z,67.13
2018-04-19T23:15:29.418Z,67.30
2018-04-19T23:17:57.889Z,67.57
2018-04-19T23:20:26.345Z,67.90
2018-04-19T23:22:54.818Z,68.16
2018-04-19T23:25:23.285Z,68.37
2018-04-19T23:27:51.784Z,68.80
2018-04-19T23:30:20.239Z,68.81
2018-04-19T23:32:48.685Z,69.39
2018-04-19T23:35:17.126Z,69.54
2018-04-19T23:37:45.605Z,69.77
2018-04-19T23:40:14.039Z,69.84
2018-04-19T23:42:42.497Z,70.29
2018-04-19T23:45:10.981Z,70.27
2018-04-19T23:47:39.434Z,70.26
2018-04-19T23:50:07.888Z,70.30
2018-04-19T23:52:36.383Z,70.37
2018-04-19T23:55:04.848Z,70.56
2018-04-19T23:57:33.285Z,70.71
